createdAt,value
2022-11-21T00:00:50.779Z,97295.47
2022-11-21T00:02:57.402Z,97297.25
2022-11-21T00:05:03.186Z,97293.75
2022-11-21T00:07:09.061Z,97282.72
2022-11-21T00:09:18.456Z,97283.53
2022-11-21T00:11:30.882Z,97276.03
2022-11-21T00:13:37.159Z,97269.38
2022-11-21T00:15:44.067Z,97260.69
2022-11-21T00:18:09.777Z,97260.53
2022-11-21T00:20:17.059Z,97262.59
2022-11-21T00:22:23.743Z,97264.22
2022-11-21T00:24:32.155Z,97260.69
2022-11-21T00:26:38.027Z,97260.69
2022-11-21T00:28:45.645Z,97256.47
2022-11-21T00:30:54.526Z,97261.06
2022-11-21T00:33:08.779Z,97251.72
2022-11-21T00:35:16.481Z,97251.97
2022-11-21T00:37:23.256Z,97255.50
2022-11-21T00:39:31.897Z,97248.97
2022-11-21T00:41:38.582Z,97250.59
2022-11-21T00:43:44.545Z,97245.44
2022-11-21T00:45:50.495Z,97242.03
2022-11-21T00:48:00.898Z,97242.97
2022-11-21T00:50:10.842Z,97235.50
2022-11-21T00:52:16.865Z,97241.75
2022-11-21T00:54:25.038Z,97230.06
2022-11-21T00:56:33.549Z,97226.13
2022-11-21T00:58:39.417Z,97229.06
2022-11-21T01:03:30.188Z,97240.59
2022-11-21T01:05:36.652Z,97234.19
2022-11-21T01:07:43.465Z,97232.69
2022-11-21T01:09:55.511Z,97225.06
2022-11-21T01:12:04.043Z,97229.31
2022-11-21T01:14:10.767Z,97221.97
2022-11-21T01:16:20.894Z,97219.75
2022-11-21T01:18:26.757Z,97224.34
2022-11-21T01:20:33.587Z,97219.06
2022-11-21T01:22:39.680Z,97220.28
2022-11-21T01:24:45.634Z,97215.00
2022-11-21T01:26:53.815Z,97197.75
2022-11-21T01:29:02.917Z,97198.44
2022-11-21T01:31:10.058Z,97194.34
2022-11-21T01:33:26.500Z,97191.38
2022-11-21T01:35:32.398Z,97199.00
2022-11-21T01:37:38.155Z,97198.06
2022-11-21T01:39:44.880Z,97198.88
2022-11-21T01:41:50.645Z,97199.81
2022-11-21T01:43:56.429Z,97210.00
2022-11-21T01:46:19.977Z,97204.84
2022-11-21T01:48:36.030Z,97210.97
2022-11-21T01:50:41.992Z,97211.78
2022-11-21T01:52:48.905Z,97197.75
2022-11-21T01:55:07.015Z,97208.50
2022-11-21T01:57:20.316Z,97208.22
2022-11-21T01:59:36.157Z,97200.47
2022-11-21T02:01:46.988Z,97193.03
2022-11-21T02:03:54.886Z,97191.25
2022-11-21T02:06:02.610Z,97198.88
2022-11-21T02:08:20.840Z,97202.81
2022-11-21T02:10:27.842Z,97202.69
2022-11-21T02:12:44.014Z,97199.84
2022-11-21T02:14:54.816Z,97208.13
2022-11-21T02:17:18.365Z,97208.13
2022-11-21T02:19:39.081Z,97210.72
2022-11-21T02:21:58.339Z,97203.22
2022-11-21T02:24:20.157Z,97200.81
2022-11-21T02:26:31.140Z,97188.28
2022-11-21T02:28:40.415Z,97190.84
2022-11-21T02:30:47.141Z,97188.56
2022-11-21T02:33:00.719Z,97186.91
2022-11-21T02:35:13.341Z,97173.06
2022-11-21T02:37:21.191Z,97171.06
2022-11-21T02:39:40.077Z,97162.34
2022-11-21T02:42:09.797Z,97171.44
2022-11-21T02:44:29.732Z,97164.53
2022-11-21T02:46:38.951Z,97174.84
2022-11-21T02:48:44.861Z,97172.25
2022-11-21T02:50:51.680Z,97171.44
2022-11-21T02:53:00.113Z,97169.69
2022-11-21T02:55:06.114Z,97161.00
2022-11-21T02:57:14.567Z,97170.25
2022-11-21T02:59:21.321Z,97172.81
2022-11-21T03:01:27.323Z,97170.94
2022-11-21T03:03:39.495Z,97168.34
2022-11-21T03:05:46.927Z,97171.72
2022-11-21T03:07:53.029Z,97164.16
2022-11-21T03:09:59.130Z,97161.69
2022-11-21T03:12:10.409Z,97156.66
2022-11-21T03:14:18.876Z,97167.94
2022-11-21T03:16:24.731Z,97160.31
2022-11-21T03:18:31.502Z,97158.28
2022-11-21T03:20:38.168Z,97162.47
2022-11-21T03:22:50.832Z,97167.75
2022-11-21T03:25:08.777Z,97166.53
2022-11-21T03:27:18.602Z,97170.44
2022-11-21T03:29:27.383Z,97168.81
2022-11-21T03:31:33.999Z,97147.41
2022-11-21T03:33:39.854Z,97155.13
2022-11-21T03:35:54.966Z,97156.38
2022-11-21T03:38:05.027Z,97158.97
2022-11-21T03:40:13.217Z,97155.28
2022-11-21T03:42:36.792Z,97154.97
2022-11-21T03:44:46.218Z,97151.13
2022-11-21T03:46:52.380Z,97143.03
2022-11-21T03:48:58.664Z,97137.56
2022-11-21T03:51:05.296Z,97141.63
2022-11-21T03:53:11.121Z,97134.59
2022-11-21T03:55:17.123Z,97136.09
2022-11-21T03:57:25.797Z,97124.50
2022-11-21T03:59:31.834Z,97113.16
2022-11-21T04:01:40.328Z,97114.53
2022-11-21T04:03:49.020Z,97109.72
2022-11-21T04:05:54.809Z,97104.88
2022-11-21T04:08:00.646Z,97106.75
2022-11-21T04:10:21.216Z,97105.38
2022-11-21T04:12:27.027Z,97107.50
2022-11-21T04:14:34.677Z,97106.25
2022-11-21T04:16:44.050Z,97108.50
2022-11-21T04:18:50.454Z,97098.69
2022-11-21T04:21:00.877Z,97091.25
2022-11-21T04:23:08.623Z,97098.84
2022-11-21T04:25:14.828Z,97096.13
2022-11-21T04:27:20.732Z,97088.06
2022-11-21T04:29:27.867Z,97085.47
2022-11-21T04:31:33.752Z,97092.25
2022-11-21T04:33:49.289Z,97087.91
2022-11-21T04:35:56.017Z,97076.69
2022-11-21T04:38:01.802Z,97073.03
2022-11-21T04:49:18.140Z,97063.50
2022-11-21T04:51:27.645Z,97028.78
2022-11-21T04:53:36.373Z,97064.06
2022-11-21T04:55:46.295Z,97008.00
2022-11-21T04:57:55.004Z,97048.63
2022-11-21T05:00:01.786Z,97028.84
2022-11-21T05:02:08.929Z,96987.03
2022-11-21T05:04:18.925Z,97037.78
2022-11-21T05:06:25.102Z,96984.66
2022-11-21T05:08:31.311Z,97027.94
2022-11-21T05:10:58.542Z,97048.56
2022-11-21T05:13:17.334Z,97033.50
2022-11-21T05:15:25.057Z,96991.94
2022-11-21T05:17:33.284Z,96988.34
2022-11-21T05:19:42.442Z,97013.41
2022-11-21T05:21:49.154Z,96979.47
2022-11-21T05:24:08.896Z,97015.75
2022-11-21T05:26:35.384Z,96972.84
2022-11-21T05:28:41.900Z,97000.41
2022-11-21T05:30:49.456Z,96986.41
2022-11-21T05:32:56.280Z,96993.41
2022-11-21T05:35:05.184Z,97022.69
2022-11-21T05:37:16.144Z,97018.25
2022-11-21T05:39:22.641Z,97005.19
2022-11-21T05:41:29.223Z,97011.03
2022-11-21T05:43:49.274Z,97005.66
2022-11-21T05:45:58.454Z,96994.00
2022-11-21T05:48:08.320Z,96990.28
2022-11-21T05:50:18.872Z,97023.84
2022-11-21T05:52:25.372Z,96999.25
2022-11-21T05:54:31.889Z,96999.72
2022-11-21T05:56:39.010Z,97033.91
2022-11-21T05:58:46.635Z,96965.75
2022-11-21T06:01:06.956Z,96983.03
2022-11-21T06:03:27.155Z,97011.94
2022-11-21T06:05:36.539Z,97019.78
2022-11-21T06:07:43.057Z,97009.75
2022-11-21T06:09:56.925Z,97031.66
2022-11-21T06:12:15.262Z,97040.88
2022-11-21T06:14:21.759Z,96999.22
2022-11-21T06:16:29.195Z,96995.69
2022-11-21T06:18:38.370Z,97031.03
2022-11-21T06:20:47.319Z,97017.84
2022-11-21T06:22:54.592Z,97006.28
2022-11-21T06:25:00.699Z,96996.00
2022-11-21T06:27:07.208Z,97021.84
2022-11-21T06:29:15.201Z,97013.13
2022-11-21T06:31:32.141Z,97008.47
2022-11-21T06:33:40.254Z,96971.47
2022-11-21T06:35:50.084Z,96992.69
2022-11-21T06:37:56.404Z,97013.69
2022-11-21T06:40:03.065Z,96990.06
2022-11-21T06:42:10.630Z,97003.91
2022-11-21T06:44:16.956Z,96981.75
2022-11-21T06:46:23.334Z,96977.22
2022-11-21T06:48:36.948Z,96954.47
2022-11-21T06:50:44.063Z,96983.16
2022-11-21T06:52:53.355Z,97006.59
2022-11-21T06:55:00.596Z,97017.19
2022-11-21T06:57:13.581Z,97018.75
2022-11-21T06:59:19.943Z,96964.00
2022-11-21T07:01:28.513Z,97009.16
2022-11-21T07:03:35.206Z,97008.94
2022-11-21T07:05:42.165Z,96978.59
2022-11-21T07:07:52.604Z,96971.19
2022-11-21T07:09:59.118Z,96955.09
2022-11-21T07:12:18.336Z,96961.84
2022-11-21T07:14:26.183Z,96963.47
2022-11-21T07:16:33.278Z,97010.69
2022-11-21T07:18:42.626Z,96999.25
2022-11-21T07:20:53.836Z,96991.97
2022-11-21T07:23:04.312Z,97007.38
2022-11-21T07:26:51.529Z,97009.91
2022-11-21T07:28:58.135Z,97014.66
2022-11-21T07:31:13.153Z,97009.63
2022-11-21T07:33:23.803Z,97006.69
2022-11-21T07:35:31.230Z,97003.50
2022-11-21T07:37:42.018Z,97000.56
2022-11-21T07:39:47.950Z,97003.13
2022-11-21T07:41:57.038Z,97001.44
2022-11-21T07:44:09.080Z,96996.34
2022-11-21T07:46:35.182Z,96996.75
2022-11-21T07:48:41.763Z,96998.81
2022-11-21T07:50:47.516Z,96998.31
2022-11-21T07:52:53.225Z,96997.22
2022-11-21T07:55:02.445Z,96991.53
2022-11-21T07:57:10.766Z,96987.31
2022-11-21T07:59:19.354Z,96983.41
2022-11-21T08:01:34.065Z,96981.25
2022-11-21T08:03:39.943Z,96977.09
2022-11-21T08:05:47.292Z,96976.31
2022-11-21T08:07:55.469Z,96977.84
2022-11-21T08:10:01.155Z,96978.69
2022-11-21T08:12:25.697Z,96969.91
2022-11-21T08:14:35.208Z,96975.19
2022-11-21T08:16:56.501Z,96973.16
2022-11-21T08:19:02.253Z,96971.00
2022-11-21T08:21:20.188Z,96973.47
2022-11-21T08:23:26.032Z,96976.41
2022-11-21T08:25:31.821Z,96982.25
2022-11-21T08:27:42.616Z,96981.44
2022-11-21T08:29:48.315Z,96984.28
2022-11-21T08:32:11.224Z,96962.41
2022-11-21T08:34:37.048Z,96963.22
2022-11-21T08:36:43.979Z,96947.84
2022-11-21T08:38:50.890Z,96968.84
2022-11-21T08:41:17.781Z,96945.00
2022-11-21T08:43:27.990Z,96940.53
2022-11-21T08:45:42.677Z,96983.00
2022-11-21T08:48:17.876Z,96940.00
2022-11-21T08:50:26.639Z,96942.44
2022-11-21T08:52:34.587Z,96929.28
2022-11-21T08:54:45.493Z,96960.94
2022-11-21T08:56:52.965Z,96956.59
2022-11-21T08:59:02.782Z,96935.97
2022-11-21T09:01:10.526Z,96974.41
2022-11-21T09:03:22.223Z,96953.38
2022-11-21T09:05:31.193Z,96977.78
2022-11-21T09:07:42.157Z,96941.00
2022-11-21T09:09:48.957Z,96887.44
2022-11-21T09:11:57.683Z,96971.69
2022-11-21T09:14:20.402Z,96905.31
2022-11-21T09:16:39.548Z,96931.38
2022-11-21T09:18:47.100Z,96964.59
2022-11-21T09:20:54.988Z,96924.28
2022-11-21T09:23:06.606Z,96911.19
2022-11-21T09:25:13.562Z,96944.81
2022-11-21T09:27:20.930Z,96934.16
2022-11-21T09:29:32.081Z,96946.34
2022-11-21T09:31:38.108Z,96935.31
2022-11-21T09:33:45.057Z,96924.13
2022-11-21T09:35:51.052Z,96950.75
2022-11-21T09:37:56.825Z,96950.44
2022-11-21T09:40:10.111Z,96919.47
2022-11-21T09:43:05.946Z,96951.88
2022-11-21T09:45:25.275Z,96905.88
2022-11-21T09:47:36.837Z,96913.97
2022-11-21T09:49:52.926Z,96912.66
2022-11-21T09:52:04.245Z,96931.50
2022-11-21T09:54:23.374Z,96936.41
2022-11-21T09:56:37.509Z,96928.59
2022-11-21T09:58:55.677Z,96923.47
2022-11-21T10:01:05.905Z,96914.69
2022-11-21T10:03:22.210Z,96900.25
2022-11-21T10:05:44.445Z,96893.19
2022-11-21T10:08:01.633Z,96918.91
2022-11-21T10:10:42.322Z,96932.03
2022-11-21T10:13:21.366Z,96917.91
2022-11-21T10:15:44.168Z,96913.16
2022-11-21T10:18:37.769Z,96913.69
2022-11-21T10:21:04.261Z,96899.31
2022-11-21T10:23:40.337Z,96909.53
2022-11-21T10:25:59.680Z,96897.25
2022-11-21T10:28:19.483Z,96914.44
2022-11-21T10:30:30.048Z,96912.00
2022-11-21T10:32:45.263Z,96905.75
2022-11-21T10:35:00.895Z,96855.81
2022-11-21T10:37:22.444Z,96883.66
2022-11-21T10:39:40.978Z,96897.72
2022-11-21T10:41:59.769Z,96898.66
2022-11-21T10:44:40.397Z,96897.34
2022-11-21T10:46:58.659Z,96877.81
2022-11-21T10:49:08.772Z,96886.00
2022-11-21T10:51:48.303Z,96896.31
2022-11-21T10:54:30.347Z,96893.53
2022-11-21T10:56:40.114Z,96879.91
2022-11-21T10:58:49.144Z,96875.38
2022-11-21T11:01:07.516Z,96891.50
2022-11-21T11:03:21.749Z,96894.38
2022-11-21T11:05:30.568Z,96862.22
2022-11-21T11:07:39.157Z,96900.66
2022-11-21T11:09:47.833Z,96899.06
2022-11-21T11:11:53.927Z,96870.34
2022-11-21T11:14:05.849Z,96892.72
2022-11-21T11:16:22.050Z,96892.13
2022-11-21T11:18:30.259Z,96889.63
2022-11-21T11:20:43.967Z,96897.34
2022-11-21T11:22:54.921Z,96887.72
2022-11-21T11:25:01.182Z,96893.63
2022-11-21T11:27:07.339Z,96868.28
2022-11-21T11:29:27.533Z,96881.19
2022-11-21T11:31:46.500Z,96894.59
2022-11-21T11:33:59.132Z,96896.59
2022-11-21T11:36:35.568Z,96903.22
2022-11-21T11:38:52.294Z,96898.47
2022-11-21T11:41:00.763Z,96888.03
2022-11-21T11:43:57.021Z,96900.44
2022-11-21T11:46:44.279Z,96889.06
2022-11-21T11:49:19.364Z,96898.72
2022-11-21T11:51:31.138Z,96893.88
2022-11-21T11:53:48.307Z,96891.66
2022-11-21T11:56:02.844Z,96889.44
2022-11-21T11:58:21.400Z,96881.22
2022-11-21T12:00:44.413Z,96888.44
2022-11-21T12:03:03.277Z,96878.00
2022-11-21T12:05:24.139Z,96887.63
2022-11-21T12:08:38.765Z,96881.88
2022-11-21T12:10:26.738Z,96893.00
2022-11-21T12:12:43.081Z,96894.00
2022-11-21T12:15:19.299Z,96846.69
2022-11-21T12:17:39.958Z,96852.28
2022-11-21T12:19:47.115Z,96872.50
2022-11-21T12:21:53.165Z,96880.94
2022-11-21T12:24:05.236Z,96877.72
2022-11-21T12:26:48.314Z,96851.66
2022-11-21T12:29:17.278Z,96864.50
2022-11-21T12:31:51.665Z,96859.59
2022-11-21T12:34:22.872Z,96869.56
2022-11-21T12:36:47.079Z,96879.09
2022-11-21T12:39:38.010Z,96848.16
2022-11-21T12:42:15.733Z,96851.84
2022-11-21T12:44:48.505Z,96863.09
2022-11-21T12:47:22.659Z,96849.16
2022-11-21T12:49:59.750Z,96854.53
2022-11-21T12:52:37.455Z,96851.19
2022-11-21T12:55:38.170Z,96864.34
2022-11-21T12:58:31.267Z,96863.41
2022-11-21T13:01:07.899Z,96857.03
2022-11-21T13:04:01.785Z,96858.66
2022-11-21T13:06:25.854Z,96851.25
2022-11-21T13:08:39.677Z,96855.28
2022-11-21T13:11:19.237Z,96875.44
2022-11-21T13:13:41.681Z,96872.19
2022-11-21T13:16:03.765Z,96850.09
2022-11-21T13:18:28.754Z,96872.13
2022-11-21T13:20:45.795Z,96849.13
2022-11-21T13:23:01.332Z,96874.72
2022-11-21T13:25:14.963Z,96876.28
2022-11-21T13:27:38.130Z,96861.44
2022-11-21T13:30:24.897Z,96832.59
2022-11-21T13:32:49.788Z,96868.38
2022-11-21T13:34:56.712Z,96870.97
2022-11-21T13:37:02.736Z,96880.94
2022-11-21T13:39:40.528Z,96876.38
2022-11-21T13:42:28.665Z,96884.38
2022-11-21T13:44:43.643Z,96890.22
2022-11-21T13:47:05.277Z,96876.75
2022-11-21T13:49:35.289Z,96864.06
2022-11-21T13:51:57.343Z,96847.06
2022-11-21T13:54:50.909Z,96866.56
2022-11-21T13:57:28.573Z,96871.41
2022-11-21T14:00:20.064Z,96846.84
2022-11-21T14:03:07.000Z,96863.03
2022-11-21T14:06:11.187Z,96837.31
2022-11-21T14:08:26.559Z,96874.91
2022-11-21T14:10:42.477Z,96889.47
2022-11-21T14:12:55.425Z,96860.03
2022-11-21T14:15:28.468Z,96847.94
2022-11-21T14:17:49.122Z,96869.41
2022-11-21T14:20:06.260Z,96873.06
2022-11-21T14:22:45.680Z,96864.19
2022-11-21T14:24:55.277Z,96865.88
2022-11-21T14:27:04.853Z,96893.56
2022-11-21T14:29:25.087Z,96830.94
2022-11-21T14:31:32.667Z,96855.59
2022-11-21T14:33:41.497Z,96853.38
2022-11-21T14:35:52.163Z,96874.44
2022-11-21T14:38:01.947Z,96897.59
2022-11-21T14:43:31.021Z,96898.44
2022-11-21T14:45:51.797Z,96888.44
2022-11-21T14:47:58.149Z,96900.16
2022-11-21T14:50:30.339Z,96902.09
2022-11-21T14:52:37.877Z,96902.28
2022-11-21T14:57:29.453Z,96878.56
2022-11-21T14:59:43.453Z,96905.00
2022-11-21T15:02:03.705Z,96911.69
2022-11-21T15:04:16.776Z,96881.28
2022-11-21T15:06:22.686Z,96903.78
2022-11-21T15:11:06.580Z,96916.63
2022-11-21T15:13:20.740Z,96910.47
2022-11-21T15:15:38.327Z,96875.16
2022-11-21T15:20:31.209Z,96866.41
2022-11-21T15:22:41.593Z,96873.72
2022-11-21T15:25:09.901Z,96899.28
2022-11-21T15:27:39.366Z,96895.41
2022-11-21T15:29:46.117Z,96884.50
2022-11-21T15:32:16.572Z,96890.84
2022-11-21T15:34:37.343Z,96909.78
2022-11-21T15:36:44.375Z,96871.06
2022-11-21T15:39:05.047Z,96880.41
2022-11-21T15:41:33.421Z,96892.47
2022-11-21T15:43:48.771Z,96893.63
2022-11-21T15:46:05.635Z,96899.41
2022-11-21T15:48:15.644Z,96893.38
2022-11-21T15:50:22.028Z,96874.59
2022-11-21T15:52:33.955Z,96872.81
2022-11-21T15:54:42.812Z,96890.97
2022-11-21T15:56:50.187Z,96875.06
2022-11-21T15:59:00.714Z,96907.13
2022-11-21T16:01:25.757Z,96872.19
2022-11-21T16:03:33.423Z,96871.50
2022-11-21T16:05:51.462Z,96892.09
2022-11-21T16:08:05.385Z,96904.25
2022-11-21T16:10:34.470Z,96830.88
2022-11-21T16:12:48.924Z,96913.28
2022-11-21T16:15:01.176Z,96907.44
2022-11-21T16:19:05.990Z,96901.13
2022-11-21T16:21:17.853Z,96905.53
2022-11-21T16:23:23.527Z,96908.13
2022-11-21T16:25:29.232Z,96904.03
2022-11-21T16:27:36.326Z,96903.25
2022-11-21T16:29:42.059Z,96905.84
2022-11-21T16:31:54.327Z,96909.25
2022-11-21T16:34:16.174Z,96903.06
2022-11-21T16:36:28.584Z,96899.03
2022-11-21T16:38:35.509Z,96904.88
2022-11-21T16:40:42.418Z,96905.84
2022-11-21T16:42:48.068Z,96905.69
2022-11-21T16:44:55.745Z,96902.09
2022-11-21T16:47:08.745Z,96902.91
2022-11-21T16:49:23.783Z,96902.44
2022-11-21T16:51:31.841Z,96905.38
2022-11-21T16:53:38.256Z,96897.13
2022-11-21T16:55:43.942Z,96898.72
2022-11-21T16:57:49.863Z,96909.78
2022-11-21T16:59:58.160Z,96913.66
2022-11-21T17:02:07.815Z,96913.66
2022-11-21T17:04:29.069Z,96917.41
2022-11-21T17:06:49.113Z,96908.31
2022-11-21T17:08:54.779Z,96907.31
2022-11-21T17:11:01.632Z,96915.78
2022-11-21T17:13:15.319Z,96908.59
2022-11-21T17:15:21.052Z,96914.66
2022-11-21T17:17:26.750Z,96922.09
2022-11-21T17:19:33.233Z,96921.13
2022-11-21T17:21:38.874Z,96925.97
2022-11-21T17:23:49.653Z,96914.94
2022-11-21T17:25:56.127Z,96916.56
2022-11-21T17:28:04.829Z,96919.81
2022-11-21T17:30:16.036Z,96914.59
2022-11-21T17:32:22.633Z,96914.75
2022-11-21T17:34:32.787Z,96914.94
2022-11-21T17:36:38.849Z,96912.50
2022-11-21T17:38:48.030Z,96920.50
2022-11-21T17:41:03.103Z,96916.25
2022-11-21T17:43:09.084Z,96918.84
2022-11-21T17:45:15.585Z,96921.63
2022-11-21T17:47:24.325Z,96920.81
2022-11-21T17:49:30.496Z,96922.44
2022-11-21T17:51:38.076Z,96917.25
2022-11-21T17:53:49.531Z,96922.44
2022-11-21T17:56:01.588Z,96909.13
2022-11-21T17:58:08.014Z,96925.50
2022-11-21T18:00:18.020Z,96933.63
2022-11-21T18:02:23.895Z,96928.53
2022-11-21T18:04:30.728Z,96932.25
2022-11-21T18:06:39.701Z,96926.88
2022-11-21T18:08:50.434Z,96923.47
2022-11-21T18:10:57.160Z,96929.31
2022-11-21T18:13:02.770Z,96930.44
2022-11-21T18:15:09.468Z,96933.41
2022-11-21T18:17:16.278Z,96925.13
2022-11-21T18:19:22.340Z,96929.06
2022-11-21T18:21:30.969Z,96926.97
2022-11-21T18:35:08.389Z,96914.16
2022-11-21T18:37:17.714Z,96933.44
2022-11-21T18:39:29.903Z,96928.41
2022-11-21T18:41:38.624Z,96927.56
2022-11-21T18:43:47.767Z,96904.41
2022-11-21T18:45:53.649Z,96922.69
2022-11-21T18:47:59.532Z,96929.66
2022-11-21T18:50:10.195Z,96899.84
2022-11-21T18:52:16.214Z,96940.06
2022-11-21T18:54:22.088Z,96946.53
2022-11-21T18:56:30.099Z,96942.13
2022-11-21T18:58:37.455Z,96948.34
2022-11-21T19:00:43.354Z,96944.28
2022-11-21T19:02:50.062Z,96943.66
2022-11-21T19:04:56.904Z,96950.47
2022-11-21T19:07:05.481Z,96952.75
2022-11-21T19:09:15.088Z,96959.72
2022-11-21T19:11:21.853Z,96957.13
2022-11-21T19:13:31.158Z,96962.97
2022-11-21T19:15:45.771Z,96960.19
2022-11-21T19:17:51.744Z,96957.13
2022-11-21T19:20:22.313Z,96961.34
2022-11-21T19:22:32.115Z,96957.31
2022-11-21T19:24:38.315Z,96960.56
2022-11-21T19:26:46.416Z,96968.16
2022-11-21T19:29:13.031Z,96959.88
2022-11-21T19:31:21.373Z,96960.66
2022-11-21T19:33:29.222Z,96968.31
2022-11-21T19:35:35.913Z,96961.81
2022-11-21T19:37:44.505Z,96956.47
2022-11-21T19:39:50.654Z,96968.81
2022-11-21T19:41:57.380Z,96969.44
2022-11-21T19:44:05.260Z,96967.19
2022-11-21T19:46:27.976Z,96972.91
2022-11-21T19:48:34.991Z,96968.69
2022-11-21T19:50:45.909Z,96962.06
2022-11-21T19:52:58.071Z,96976.38
2022-11-21T19:55:05.253Z,96978.31
2022-11-21T19:57:14.039Z,96974.59
2022-11-21T19:59:22.986Z,96978.16
2022-11-21T20:01:34.112Z,96982.53
2022-11-21T20:03:43.394Z,96992.13
2022-11-21T20:05:49.951Z,96984.69
2022-11-21T20:08:04.656Z,96994.09
2022-11-21T20:10:14.516Z,96984.69
2022-11-21T20:12:20.718Z,96989.44
2022-11-21T20:14:27.853Z,97005.50
2022-11-21T20:16:38.344Z,96998.38
2022-11-21T20:18:44.586Z,97009.59
2022-11-21T20:20:51.539Z,97010.56
2022-11-21T20:23:00.299Z,97005.38
2022-11-21T20:25:09.344Z,97009.59
2022-11-21T20:27:16.347Z,97012.00
2022-11-21T20:29:22.611Z,97009.75
2022-11-21T20:31:31.927Z,97010.53
2022-11-21T20:33:41.563Z,97012.34
2022-11-21T20:35:47.723Z,97001.59
2022-11-21T20:37:53.991Z,96970.16
2022-11-21T20:40:03.498Z,97002.94
2022-11-21T20:42:09.886Z,97000.50
2022-11-21T20:45:15.029Z,97009.75
2022-11-21T20:46:47.081Z,97007.78
2022-11-21T20:48:53.817Z,97014.78
2022-11-21T20:53:51.641Z,97009.09
2022-11-21T20:56:03.733Z,96998.03
2022-11-21T20:58:09.782Z,97009.75
2022-11-21T21:00:19.024Z,97001.78
2022-11-21T21:02:25.414Z,97000.78
2022-11-21T21:04:31.566Z,97002.75
2022-11-21T21:06:39.847Z,97001.44
2022-11-21T21:08:46.163Z,96998.22
2022-11-21T21:11:05.853Z,96995.13
2022-11-21T21:13:15.908Z,96983.78
2022-11-21T21:15:22.244Z,96995.00
2022-11-21T21:17:28.341Z,96997.28
2022-11-21T21:19:35.127Z,97007.47
2022-11-21T21:21:41.872Z,97015.00
2022-11-21T21:23:51.566Z,97023.78
2022-11-21T21:25:58.548Z,97018.94
2022-11-21T21:28:04.660Z,97003.50
2022-11-21T21:30:15.344Z,96988.09
2022-11-21T21:32:22.029Z,97001.88
2022-11-21T21:34:28.645Z,96991.66
2022-11-21T21:36:35.075Z,96999.28
2022-11-21T21:38:42.436Z,97003.84
2022-11-21T21:40:48.461Z,96997.31
2022-11-21T21:42:56.597Z,96988.72
2022-11-21T21:45:03.568Z,96984.00
2022-11-21T21:47:16.435Z,96992.63
2022-11-21T21:49:24.144Z,96979.16
2022-11-21T21:51:33.541Z,96973.94
2022-11-21T21:53:41.022Z,96974.41
2022-11-21T21:55:47.241Z,96965.31
2022-11-21T21:57:54.155Z,96960.91
2022-11-21T22:00:00.217Z,96976.97
2022-11-21T22:02:07.189Z,96973.88
2022-11-21T22:04:16.830Z,96973.22
2022-11-21T22:06:23.723Z,96972.41
2022-11-21T22:08:29.939Z,96958.41
2022-11-21T22:10:36.912Z,96971.00
2022-11-21T22:12:44.313Z,96973.97
2022-11-21T22:14:50.492Z,96964.19
2022-11-21T22:16:57.653Z,96967.41
2022-11-21T22:19:04.145Z,96959.88
2022-11-21T22:21:21.731Z,96958.41
2022-11-21T22:23:31.450Z,96964.25
2022-11-21T22:25:37.576Z,96950.78
2022-11-21T22:27:43.769Z,96956.81
2022-11-21T22:29:50.673Z,96945.94
2022-11-21T22:31:56.739Z,96954.75
2022-11-21T22:34:03.721Z,96944.41
2022-11-21T22:36:14.961Z,96947.34
2022-11-21T22:38:23.752Z,96950.72
2022-11-21T22:40:30.276Z,96950.38
2022-11-21T22:42:37.374Z,96942.56
2022-11-21T22:44:43.648Z,96902.13
2022-11-21T22:46:49.912Z,96942.06
2022-11-21T22:48:57.789Z,96945.75
2022-11-21T22:51:04.239Z,96945.44
2022-11-21T22:53:10.466Z,96942.72
2022-11-21T22:55:20.360Z,96896.88
2022-11-21T22:57:26.483Z,96935.63
2022-11-21T22:59:32.482Z,96938.88
2022-11-21T23:01:39.377Z,96941.91
2022-11-21T23:03:47.866Z,96941.59
2022-11-21T23:06:03.109Z,96950.41
2022-11-21T23:08:10.421Z,96944.25
2022-11-21T23:10:19.545Z,96943.31
2022-11-21T23:12:26.164Z,96944.25
2022-11-21T23:14:33.237Z,96940.25
2022-11-21T23:16:39.960Z,96943.50
2022-11-21T23:18:47.023Z,96931.38
2022-11-21T23:20:53.903Z,96940.81
2022-11-21T23:23:00.289Z,96935.50
2022-11-21T23:25:06.448Z,96932.25
2022-11-21T23:27:15.888Z,96933.88
2022-11-21T23:29:22.205Z,96934.66
2022-11-21T23:31:28.309Z,96940.91
2022-11-21T23:33:35.626Z,96932.13
2022-11-21T23:35:42.222Z,96929.31
2022-11-21T23:37:48.269Z,96931.38
2022-11-21T23:39:55.034Z,96939.66
2022-11-21T23:42:01.066Z,96931.63
2022-11-21T23:44:09.757Z,96935.31
2022-11-21T23:46:16.599Z,96923.47
2022-11-21T23:48:24.408Z,96927.53
2022-11-21T23:50:30.493Z,96929.53
2022-11-21T23:52:37.325Z,96929.09
2022-11-21T23:54:43.264Z,96942.19
2022-11-21T23:56:49.273Z,96938.72
2022-11-21T23:58:56.048Z,96939.59
